createdAt,value
2022-09-30T00:02:18.475Z,71.05
2022-09-30T00:04:45.314Z,71.26
2022-09-30T00:07:12.165Z,71.14
2022-09-30T00:09:38.983Z,71.09
2022-09-30T00:12:05.826Z,71.11
2022-09-30T00:14:32.653Z,71.08
2022-09-30T00:16:59.696Z,71.19
2022-09-30T00:19:26.498Z,71.27
2022-09-30T00:21:53.243Z,71.09
2022-09-30T00:24:20.018Z,71.27
2022-09-30T00:26:46.794Z,71.30
2022-09-30T00:29:13.578Z,71.08
2022-09-30T00:31:40.518Z,71.26
2022-09-30T00:34:07.640Z,71.17
2022-09-30T00:36:34.574Z,71.18
2022-09-30T00:39:01.470Z,71.11
2022-09-30T00:41:28.496Z,70.96
2022-09-30T00:43:55.231Z,71.06
2022-09-30T00:46:24.981Z,70.99
2022-09-30T00:48:54.046Z,70.91
2022-09-30T00:51:36.842Z,70.96
2022-09-30T00:54:08.819Z,71.31
2022-09-30T00:56:49.537Z,70.97
2022-09-30T00:59:20.714Z,70.90
2022-09-30T01:01:47.518Z,70.80
2022-09-30T01:04:20.735Z,70.71
2022-09-30T01:06:47.959Z,70.84
2022-09-30T01:09:14.921Z,70.91
2022-09-30T01:11:41.814Z,70.61
2022-09-30T01:14:16.128Z,70.58
2022-09-30T01:16:54.794Z,70.68
2022-09-30T01:19:57.381Z,70.43
2022-09-30T01:22:44.911Z,70.30
2022-09-30T01:25:22.965Z,70.51
2022-09-30T01:28:35.178Z,70.34
2022-09-30T01:31:31.217Z,70.46
2022-09-30T01:34:10.134Z,70.28
2022-09-30T01:37:00.066Z,70.43
2022-09-30T01:39:28.659Z,70.26
2022-09-30T01:42:11.299Z,70.21
2022-09-30T01:44:49.676Z,70.14
2022-09-30T01:47:26.452Z,70.27
2022-09-30T01:50:10.276Z,70.31
2022-09-30T01:52:49.337Z,70.13
2022-09-30T01:55:21.873Z,70.06
2022-09-30T01:58:06.699Z,70.20
2022-09-30T02:00:37.055Z,70.49
2022-09-30T02:03:16.436Z,69.99
2022-09-30T02:05:48.484Z,70.25
2022-09-30T02:08:21.766Z,70.03
2022-09-30T02:11:24.932Z,69.93
2022-09-30T02:13:58.254Z,69.89
2022-09-30T02:16:34.764Z,70.03
2022-09-30T02:19:09.360Z,69.69
2022-09-30T02:21:40.267Z,69.86
2022-09-30T02:24:10.812Z,70.15
2022-09-30T02:26:39.929Z,69.98
2022-09-30T02:29:17.232Z,69.90
2022-09-30T02:31:45.334Z,70.37
2022-09-30T02:34:15.965Z,70.37
2022-09-30T02:36:49.918Z,70.29
2022-09-30T02:39:25.677Z,70.49
2022-09-30T02:41:56.449Z,70.15
2022-09-30T02:44:23.324Z,70.28
2022-09-30T02:47:06.785Z,70.06
2022-09-30T02:49:42.855Z,70.26
2022-09-30T02:52:20.182Z,69.91
2022-09-30T02:55:08.503Z,70.08
2022-09-30T02:57:46.088Z,69.70
2022-09-30T03:00:13.848Z,69.92
2022-09-30T03:02:41.335Z,69.78
2022-09-30T03:05:09.666Z,69.91
2022-09-30T03:07:37.199Z,69.81
2022-09-30T03:10:15.327Z,69.80
2022-09-30T03:12:50.810Z,69.73
2022-09-30T03:15:29.665Z,69.76
2022-09-30T03:18:00.979Z,69.42
2022-09-30T03:20:39.723Z,69.34
2022-09-30T03:23:29.893Z,69.63
2022-09-30T03:26:12.821Z,69.71
2022-09-30T03:29:05.776Z,69.55
2022-09-30T03:31:50.853Z,69.52
2022-09-30T03:34:29.438Z,69.55
2022-09-30T03:37:23.477Z,69.83
2022-09-30T03:40:18.649Z,70.02
2022-09-30T03:42:48.336Z,69.70
2022-09-30T03:45:29.810Z,69.91
2022-09-30T03:48:01.603Z,69.79
2022-09-30T03:50:29.135Z,69.38
2022-09-30T03:52:55.928Z,69.65
2022-09-30T03:55:23.586Z,69.83
2022-09-30T03:57:51.428Z,69.76
2022-09-30T04:00:19.038Z,69.75
2022-09-30T04:02:46.363Z,69.74
2022-09-30T04:05:13.335Z,69.76
2022-09-30T04:07:40.464Z,69.77
2022-09-30T04:10:07.599Z,69.75
2022-09-30T04:12:34.441Z,69.66
2022-09-30T04:15:01.182Z,69.36
2022-09-30T04:17:27.984Z,69.09
2022-09-30T04:19:54.741Z,69.34
2022-09-30T04:22:25.640Z,69.36
2022-09-30T04:24:53.302Z,69.50
2022-09-30T04:27:20.067Z,69.24
2022-09-30T04:29:46.831Z,69.45
2022-09-30T04:32:13.689Z,69.29
2022-09-30T04:34:40.511Z,69.55
2022-09-30T04:37:10.753Z,69.58
2022-09-30T04:39:37.935Z,69.37
2022-09-30T04:42:04.703Z,69.12
2022-09-30T04:44:31.536Z,69.39
2022-09-30T04:46:58.377Z,69.46
2022-09-30T04:49:25.202Z,69.18
2022-09-30T04:51:52.003Z,69.08
2022-09-30T04:54:19.287Z,69.30
2022-09-30T04:56:46.187Z,69.18
2022-09-30T04:59:13.363Z,69.09
2022-09-30T05:01:42.510Z,69.13
2022-09-30T05:04:10.404Z,69.15
2022-09-30T05:06:37.196Z,69.13
2022-09-30T05:09:04.037Z,68.97
2022-09-30T05:11:30.904Z,69.29
2022-09-30T05:13:57.721Z,68.87
2022-09-30T05:16:24.595Z,69.06
2022-09-30T05:18:51.716Z,69.22
2022-09-30T05:21:20.510Z,68.86
2022-09-30T05:23:47.481Z,69.09
2022-09-30T05:26:14.329Z,69.33
2022-09-30T05:28:42.101Z,69.13
2022-09-30T05:31:09.271Z,69.31
2022-09-30T05:33:36.602Z,69.25
2022-09-30T05:36:06.751Z,69.15
2022-09-30T05:38:33.838Z,69.44
2022-09-30T05:41:13.149Z,69.67
2022-09-30T05:43:41.586Z,69.37
2022-09-30T05:46:08.551Z,70.11
2022-09-30T05:48:35.595Z,69.91
2022-09-30T05:51:02.722Z,69.67
2022-09-30T05:53:31.918Z,69.99
2022-09-30T05:55:59.509Z,70.30
2022-09-30T05:58:27.471Z,70.13
2022-09-30T06:00:54.731Z,70.12
2022-09-30T06:03:21.700Z,70.64
2022-09-30T06:05:48.747Z,70.33
2022-09-30T06:08:16.076Z,70.87
2022-09-30T06:10:48.222Z,70.54
2022-09-30T06:13:17.505Z,70.97
2022-09-30T06:15:45.038Z,70.96
2022-09-30T06:18:20.074Z,71.19
2022-09-30T06:20:47.409Z,71.34
2022-09-30T06:23:14.565Z,71.36
2022-09-30T06:25:43.760Z,71.29
2022-09-30T06:28:10.980Z,71.69
2022-09-30T06:30:38.012Z,71.79
2022-09-30T06:33:04.962Z,71.65
2022-09-30T06:35:32.072Z,71.87
2022-09-30T06:37:59.158Z,71.80
2022-09-30T06:40:26.836Z,71.91
2022-09-30T06:42:59.691Z,71.94
2022-09-30T06:45:32.999Z,72.10
2022-09-30T06:48:01.786Z,72.20
2022-09-30T06:50:30.291Z,72.54
2022-09-30T06:53:07.509Z,72.32
2022-09-30T06:55:39.227Z,72.50
2022-09-30T06:58:11.342Z,73.02
2022-09-30T07:00:38.368Z,72.98
2022-09-30T07:03:09.744Z,72.74
2022-09-30T07:05:44.420Z,72.46
2022-09-30T07:08:36.986Z,72.57
2022-09-30T07:11:12.653Z,73.27
2022-09-30T07:18:15.982Z,73.09
2022-09-30T07:21:51.291Z,73.20
2022-09-30T07:24:24.443Z,73.41
2022-09-30T07:27:47.283Z,73.54
2022-09-30T07:30:31.896Z,73.64
2022-09-30T07:33:04.077Z,72.62
2022-09-30T07:35:56.407Z,71.08
2022-09-30T07:38:52.791Z,70.07
2022-09-30T07:41:38.346Z,69.62
2022-09-30T07:44:12.620Z,69.96
2022-09-30T07:47:06.731Z,70.38
2022-09-30T07:49:34.933Z,70.49
2022-09-30T07:52:08.863Z,70.50
2022-09-30T07:54:41.016Z,70.42
2022-09-30T07:57:11.025Z,70.67
2022-09-30T07:59:41.359Z,70.65
2022-09-30T08:02:13.412Z,71.07
2022-09-30T08:04:52.397Z,71.15
2022-09-30T08:07:22.914Z,71.15
2022-09-30T08:09:50.182Z,71.21
2022-09-30T08:12:17.159Z,71.45
2022-09-30T08:14:45.059Z,71.52
2022-09-30T08:17:15.900Z,71.71
2022-09-30T08:19:45.411Z,71.84
2022-09-30T08:22:13.945Z,72.23
2022-09-30T08:24:45.241Z,72.25
2022-09-30T08:27:14.494Z,72.33
2022-09-30T08:32:32.176Z,72.39
2022-09-30T08:35:10.954Z,72.30
2022-09-30T08:37:37.928Z,71.92
2022-09-30T08:40:05.210Z,72.00
2022-09-30T08:42:40.578Z,71.88
2022-09-30T08:45:25.346Z,71.80
2022-09-30T08:48:34.633Z,72.06
2022-09-30T08:51:38.003Z,71.81
2022-09-30T08:54:16.442Z,71.91
2022-09-30T08:56:47.952Z,71.90
2022-09-30T08:59:33.610Z,71.84
2022-09-30T09:02:17.493Z,72.03
2022-09-30T09:04:45.579Z,71.98
2022-09-30T09:07:23.729Z,71.93
2022-09-30T09:10:12.787Z,72.03
2022-09-30T09:12:52.159Z,71.94
2022-09-30T09:15:43.125Z,71.89
2022-09-30T09:18:43.271Z,72.01
2022-09-30T09:21:35.347Z,71.85
2022-09-30T09:24:30.464Z,71.67
2022-09-30T09:27:23.379Z,71.83
2022-09-30T09:30:01.832Z,71.85
2022-09-30T09:32:29.861Z,71.68
2022-09-30T09:35:04.566Z,71.73
2022-09-30T09:38:13.921Z,71.70
2022-09-30T09:40:57.703Z,71.60
2022-09-30T09:43:48.415Z,71.56
2022-09-30T09:46:26.685Z,71.58
2022-09-30T09:49:42.175Z,71.96
2022-09-30T09:52:12.451Z,71.55
2022-09-30T09:54:47.319Z,71.67
2022-09-30T09:57:24.931Z,71.79
2022-09-30T10:02:30.111Z,71.74
2022-09-30T10:05:01.293Z,71.77
2022-09-30T10:07:30.225Z,71.96
2022-09-30T10:10:23.706Z,71.84
2022-09-30T10:12:53.973Z,71.94
2022-09-30T10:15:26.317Z,71.99
2022-09-30T10:18:06.856Z,71.88
2022-09-30T10:20:34.954Z,71.67
2022-09-30T10:23:08.207Z,71.84
2022-09-30T10:25:35.183Z,71.80
2022-09-30T10:28:04.313Z,71.95
2022-09-30T10:30:43.134Z,71.83
2022-09-30T10:33:16.838Z,71.48
2022-09-30T10:35:53.948Z,71.71
2022-09-30T10:38:22.171Z,71.63
2022-09-30T10:40:51.046Z,71.77
2022-09-30T10:43:20.957Z,71.77
2022-09-30T10:46:01.498Z,71.87
2022-09-30T10:48:36.365Z,71.93
2022-09-30T10:51:04.520Z,71.75
2022-09-30T10:53:34.480Z,71.80
2022-09-30T10:56:05.132Z,71.72
2022-09-30T10:58:46.624Z,71.67
2022-09-30T11:04:35.193Z,71.95
2022-09-30T11:07:27.870Z,71.78
2022-09-30T11:10:05.055Z,71.67
2022-09-30T11:13:37.930Z,71.58
2022-09-30T11:16:42.446Z,71.82
2022-09-30T11:19:24.274Z,71.79
2022-09-30T11:22:00.940Z,71.89
2022-09-30T11:24:44.293Z,71.80
2022-09-30T11:27:51.096Z,71.66
2022-09-30T11:30:21.966Z,71.58
2022-09-30T11:33:24.903Z,71.43
2022-09-30T11:35:56.887Z,71.76
2022-09-30T11:38:51.406Z,71.47
2022-09-30T11:41:23.688Z,71.79
2022-09-30T11:44:17.858Z,71.54
2022-09-30T11:47:06.263Z,71.49
2022-09-30T11:49:36.395Z,71.44
2022-09-30T11:52:30.621Z,71.20
2022-09-30T11:55:29.970Z,71.16
2022-09-30T11:58:39.774Z,71.00
2022-09-30T12:04:35.650Z,71.37
2022-09-30T12:07:11.638Z,71.30
2022-09-30T12:09:46.704Z,71.17
2022-09-30T12:12:17.978Z,71.59
2022-09-30T12:14:49.664Z,71.29
2022-09-30T12:17:39.662Z,71.39
2022-09-30T12:20:22.808Z,71.25
2022-09-30T12:22:55.048Z,71.19
2022-09-30T12:25:39.827Z,71.28
2022-09-30T12:28:34.557Z,71.29
2022-09-30T12:31:40.136Z,71.21
2022-09-30T12:34:29.441Z,71.10
2022-09-30T12:37:02.749Z,71.21
2022-09-30T12:39:59.183Z,71.00
2022-09-30T12:42:50.723Z,70.75
2022-09-30T12:45:55.036Z,70.66
2022-09-30T12:48:26.514Z,70.64
2022-09-30T12:50:57.556Z,70.74
2022-09-30T12:53:36.186Z,70.69
2022-09-30T12:56:14.603Z,70.69
2022-09-30T12:58:55.668Z,70.66
2022-09-30T13:01:42.458Z,70.59
2022-09-30T13:04:39.101Z,70.58
2022-09-30T13:07:22.506Z,70.77
2022-09-30T13:10:01.375Z,70.69
2022-09-30T13:12:44.780Z,70.75
2022-09-30T13:15:42.013Z,70.66
2022-09-30T13:18:20.538Z,70.76
2022-09-30T13:20:56.780Z,70.65
2022-09-30T13:23:42.827Z,70.65
2022-09-30T13:26:36.484Z,70.72
2022-09-30T13:29:06.383Z,70.63
2022-09-30T13:31:56.249Z,70.60
2022-09-30T13:34:30.925Z,70.56
2022-09-30T13:36:59.159Z,70.48
2022-09-30T13:39:30.592Z,70.47
2022-09-30T13:42:00.273Z,70.44
2022-09-30T13:44:38.634Z,70.47
2022-09-30T13:47:45.549Z,70.49
2022-09-30T13:50:31.603Z,70.39
2022-09-30T13:53:40.545Z,70.46
2022-09-30T13:56:09.557Z,70.29
2022-09-30T13:58:50.636Z,70.24
2022-09-30T14:01:32.412Z,70.21
2022-09-30T14:04:21.626Z,70.26
2022-09-30T14:07:29.303Z,70.14
2022-09-30T14:10:20.154Z,70.19
2022-09-30T14:12:56.702Z,70.03
2022-09-30T14:16:08.874Z,70.03
2022-09-30T14:18:44.547Z,69.99
2022-09-30T14:21:18.136Z,69.67
2022-09-30T14:23:45.140Z,69.91
2022-09-30T14:26:43.985Z,69.95
2022-09-30T14:29:19.912Z,70.07
2022-09-30T14:31:47.595Z,70.38
2022-09-30T14:34:17.041Z,70.40
2022-09-30T14:36:44.546Z,70.34
2022-09-30T14:39:18.101Z,70.40
2022-09-30T14:41:51.198Z,70.23
2022-09-30T14:44:20.065Z,70.25
2022-09-30T14:46:48.540Z,70.10
2022-09-30T14:49:28.776Z,70.09
2022-09-30T14:51:55.727Z,70.54
2022-09-30T14:54:24.622Z,70.60
2022-09-30T14:56:54.749Z,70.47
2022-09-30T14:59:31.263Z,70.66
2022-09-30T15:02:00.681Z,70.69
2022-09-30T15:04:35.146Z,70.94
2022-09-30T15:07:03.507Z,70.95
2022-09-30T15:09:36.193Z,70.83
2022-09-30T15:12:10.124Z,70.89
2022-09-30T15:14:55.311Z,70.97
2022-09-30T15:17:29.982Z,71.20
2022-09-30T15:19:58.362Z,71.11
2022-09-30T15:22:26.842Z,71.20
2022-09-30T15:24:54.391Z,71.22
2022-09-30T15:27:24.156Z,71.33
2022-09-30T15:30:29.299Z,71.39
2022-09-30T15:33:01.948Z,71.22
2022-09-30T15:35:28.867Z,71.47
2022-09-30T15:38:07.096Z,71.77
2022-09-30T15:40:50.453Z,71.64
2022-09-30T15:43:35.647Z,71.80
2022-09-30T15:46:27.653Z,71.87
2022-09-30T15:48:59.427Z,71.80
2022-09-30T15:51:43.470Z,71.91
2022-09-30T15:54:16.206Z,71.85
2022-09-30T15:56:43.541Z,71.79
2022-09-30T15:59:11.550Z,72.04
2022-09-30T16:01:43.840Z,71.89
2022-09-30T16:04:15.239Z,72.02
2022-09-30T16:06:45.011Z,71.92
2022-09-30T16:09:18.990Z,72.03
2022-09-30T16:12:09.960Z,72.12
2022-09-30T16:15:00.608Z,72.16
2022-09-30T16:17:35.619Z,72.07
2022-09-30T16:20:07.820Z,72.11
2022-09-30T16:22:53.541Z,72.19
2022-09-30T16:25:23.514Z,72.13
2022-09-30T16:27:57.617Z,72.13
2022-09-30T16:30:25.591Z,72.19
2022-09-30T16:32:58.112Z,72.09
2022-09-30T16:35:27.697Z,72.20
2022-09-30T16:38:00.214Z,71.87
2022-09-30T16:40:28.690Z,72.09
2022-09-30T16:42:55.589Z,72.10
2022-09-30T16:45:22.584Z,72.03
2022-09-30T16:47:50.492Z,72.16
2022-09-30T16:50:25.656Z,71.94
2022-09-30T16:52:52.621Z,72.43
2022-09-30T16:55:19.495Z,72.29
2022-09-30T16:57:46.342Z,72.13
2022-09-30T17:00:15.896Z,72.12
2022-09-30T17:02:42.721Z,72.09
2022-09-30T17:05:15.370Z,72.01
2022-09-30T17:07:43.852Z,72.00
2022-09-30T17:10:18.322Z,71.66
2022-09-30T17:12:45.138Z,71.87
2022-09-30T17:15:12.406Z,71.81
2022-09-30T17:17:39.314Z,71.95
2022-09-30T17:20:06.840Z,71.94
2022-09-30T17:22:33.743Z,71.81
2022-09-30T17:25:00.720Z,71.95
2022-09-30T17:27:27.695Z,71.85
2022-09-30T17:29:55.557Z,71.69
2022-09-30T17:32:22.645Z,71.84
2022-09-30T17:34:53.988Z,72.03
2022-09-30T17:37:27.169Z,71.77
2022-09-30T17:39:54.244Z,71.86
2022-09-30T17:42:39.979Z,71.90
2022-09-30T17:45:12.807Z,71.81
2022-09-30T17:47:42.398Z,71.85
2022-09-30T17:50:14.776Z,71.90
2022-09-30T17:52:44.087Z,71.80
2022-09-30T17:55:11.094Z,72.01
2022-09-30T17:57:39.939Z,71.89
2022-09-30T18:00:07.554Z,71.92
2022-09-30T18:02:34.448Z,71.91
2022-09-30T18:05:01.353Z,71.97
2022-09-30T18:07:28.157Z,72.02
2022-09-30T18:09:54.969Z,72.13
2022-09-30T18:12:21.741Z,71.84
2022-09-30T18:14:48.538Z,71.91
2022-09-30T18:17:15.325Z,71.79
2022-09-30T18:19:42.129Z,71.73
2022-09-30T18:22:08.898Z,71.80
2022-09-30T18:24:54.549Z,71.72
2022-09-30T18:27:22.677Z,71.79
2022-09-30T18:29:49.716Z,71.70
2022-09-30T18:32:17.586Z,71.80
2022-09-30T18:34:44.421Z,71.70
2022-09-30T18:37:11.211Z,72.08
2022-09-30T18:39:38.178Z,72.24
2022-09-30T18:42:05.450Z,71.97
2022-09-30T18:44:37.594Z,72.10
2022-09-30T18:47:05.055Z,71.64
2022-09-30T18:49:32.401Z,71.91
2022-09-30T18:51:59.728Z,71.98
2022-09-30T18:54:26.503Z,71.81
2022-09-30T18:56:53.436Z,71.87
2022-09-30T18:59:23.262Z,71.74
2022-09-30T19:01:51.018Z,71.91
2022-09-30T19:04:17.858Z,71.87
2022-09-30T19:06:45.207Z,71.87
2022-09-30T19:09:12.008Z,71.81
2022-09-30T19:11:43.093Z,71.84
2022-09-30T19:14:12.283Z,71.82
2022-09-30T19:16:39.343Z,71.90
2022-09-30T19:19:10.257Z,71.94
2022-09-30T19:21:38.240Z,71.86
2022-09-30T19:24:06.735Z,71.85
2022-09-30T19:26:36.192Z,71.86
2022-09-30T19:29:09.502Z,71.95
2022-09-30T19:31:37.505Z,72.04
2022-09-30T19:34:05.271Z,71.83
2022-09-30T19:36:42.003Z,71.66
2022-09-30T19:39:12.483Z,72.03
2022-09-30T19:41:39.865Z,72.09
2022-09-30T19:44:06.999Z,72.01
2022-09-30T19:46:33.784Z,72.02
2022-09-30T19:49:00.535Z,71.86
2022-09-30T19:51:30.762Z,72.04
2022-09-30T19:54:06.119Z,72.01
2022-09-30T19:56:34.820Z,71.95
2022-09-30T19:59:01.814Z,72.02
2022-09-30T20:01:29.536Z,72.04
2022-09-30T20:03:59.370Z,71.87
2022-09-30T20:06:28.013Z,71.77
2022-09-30T20:08:59.988Z,71.91
2022-09-30T20:11:28.771Z,72.03
2022-09-30T20:14:15.614Z,71.84
2022-09-30T20:16:43.852Z,72.02
2022-09-30T20:19:11.837Z,71.83
2022-09-30T20:21:38.745Z,71.84
2022-09-30T20:24:05.669Z,71.93
2022-09-30T20:26:34.232Z,71.92
2022-09-30T20:29:01.309Z,71.79
2022-09-30T20:31:28.364Z,71.92
2022-09-30T20:33:55.960Z,71.84
2022-09-30T20:36:23.586Z,71.77
2022-09-30T20:38:51.353Z,71.69
2022-09-30T20:41:18.323Z,71.60
2022-09-30T20:43:49.253Z,72.02
2022-09-30T20:46:16.075Z,71.64
2022-09-30T20:48:42.843Z,71.67
2022-09-30T20:51:11.962Z,71.66
2022-09-30T20:53:45.592Z,71.50
2022-09-30T20:56:15.569Z,71.53
2022-09-30T20:58:42.735Z,71.60
2022-09-30T21:01:12.580Z,71.59
2022-09-30T21:03:40.349Z,71.61
2022-09-30T21:06:11.072Z,71.55
2022-09-30T21:08:39.207Z,71.53
2022-09-30T21:11:07.359Z,71.66
2022-09-30T21:13:35.298Z,71.32
2022-09-30T21:16:03.995Z,71.67
2022-09-30T21:18:31.423Z,71.59
2022-09-30T21:20:59.793Z,71.66
2022-09-30T21:23:30.528Z,71.62
2022-09-30T21:25:58.810Z,71.50
2022-09-30T21:28:26.006Z,71.64
2022-09-30T21:30:53.114Z,71.61
2022-09-30T21:33:20.583Z,71.61
2022-09-30T21:35:47.432Z,71.54
2022-09-30T21:38:17.585Z,71.51
2022-09-30T21:40:50.136Z,71.53
2022-09-30T21:43:34.955Z,71.53
2022-09-30T21:46:03.926Z,71.65
2022-09-30T21:48:33.163Z,71.64
2022-09-30T21:51:00.359Z,71.69
2022-09-30T21:53:27.910Z,71.75
2022-09-30T21:55:55.744Z,71.63
2022-09-30T21:58:25.232Z,71.57
2022-09-30T22:00:53.417Z,71.43
2022-09-30T22:03:21.236Z,71.69
2022-09-30T22:05:54.618Z,71.49
2022-09-30T22:08:22.179Z,71.44
2022-09-30T22:10:50.770Z,71.58
2022-09-30T22:13:18.019Z,71.43
2022-09-30T22:15:46.061Z,71.44
2022-09-30T22:18:17.434Z,71.50
2022-09-30T22:20:45.092Z,71.66
2022-09-30T22:23:12.031Z,71.73
2022-09-30T22:25:39.036Z,71.68
2022-09-30T22:28:05.896Z,71.63
2022-09-30T22:30:33.159Z,71.60
2022-09-30T22:33:18.530Z,71.65
2022-09-30T22:36:03.772Z,71.36
2022-09-30T22:38:31.159Z,71.42
2022-09-30T22:40:59.280Z,71.76
2022-09-30T22:43:26.876Z,71.64
2022-09-30T22:46:08.289Z,71.77
2022-09-30T22:48:35.254Z,71.90
2022-09-30T22:51:01.997Z,71.70
2022-09-30T22:53:28.898Z,71.87
2022-09-30T22:55:55.879Z,71.85
2022-09-30T22:58:24.431Z,71.93
2022-09-30T23:00:55.115Z,71.92
2022-09-30T23:03:22.671Z,71.99
2022-09-30T23:05:50.105Z,71.94
2022-09-30T23:08:17.273Z,71.74
2022-09-30T23:10:50.686Z,71.98
2022-09-30T23:13:19.923Z,72.03
2022-09-30T23:15:47.809Z,71.97
2022-09-30T23:18:17.062Z,72.05
2022-09-30T23:20:59.970Z,72.18
2022-09-30T23:23:29.749Z,72.16
2022-09-30T23:26:00.195Z,72.15
2022-09-30T23:28:26.987Z,72.31
2022-09-30T23:30:53.864Z,72.24
2022-09-30T23:33:20.784Z,72.16
2022-09-30T23:35:48.184Z,72.19
2022-09-30T23:38:15.494Z,72.19
2022-09-30T23:40:44.701Z,72.26
2022-09-30T23:43:11.536Z,72.22
2022-09-30T23:45:38.301Z,72.26
2022-09-30T23:48:05.066Z,72.03
2022-09-30T23:50:32.362Z,72.10
2022-09-30T23:52:59.593Z,72.10
2022-09-30T23:55:27.696Z,72.06
2022-09-30T23:57:54.434Z,72.28
